• Join FlightAware (Why Join?)
  • Login
  • US Flag 
08:48AM EST


 

Airport Tracker/Info


-or-


 

Live Flight TrackerFlight Track Log ✈ SWA706 ✈ 18-May-2013 ✈ KPDX - KSLC

Flight Track Log - Related Links

Times and Time Zones

All times are in EDT time to prevent confusion due to time zone crossing. See the SWA706 flight status page for this flight to view local times or setup timezone preferences in your user account.

Time Position Orientation Groundspeed Altitude Reporting Facility
EDT Latitude Longitude Course Direction KTS MPH feet Rate Location/Type
06:34PM 45.5972 -122.6028 290° West 147 169 1,100  Level Seattle Center
06:34PM 45.6078 -122.6447 290° West 177 204 2,300 1,980 Climbing Seattle Center
06:35PM 45.6172 -122.6711 297° West 170 196 3,400 3,240 Climbing Seattle Center
06:35PM 45.6353 -122.7169 299° West 223 257 5,600 3,780 Climbing Seattle Center
06:36PM 45.6467 -122.7464 299° West 202 232 7,200 4,080 Climbing Seattle Center
06:36PM 45.6250 -122.7950 238° Southwest 233 268 9,800 3,720 Climbing Seattle Center
06:37PM 45.6050 -122.7978 186° South 238 274 11,000 2,520 Climbing Seattle Center
06:38PM 45.5575 -122.7056 126° Southeast 301 346 13,500 2,820 Climbing Seattle Center
06:39PM 45.5119 -122.5925 120° Southeast 327 376 16,800 3,000 Climbing Seattle Center
06:40PM 45.4611 -122.4686 120° Southeast 356 410 19,600 2,820 Climbing Seattle Center
06:41PM 45.4067 -122.3381 121° Southeast 377 434 22,600 2,820 Climbing Seattle Center
06:42PM 45.3492 -122.2014 121° Southeast 399 459 25,400 2,400 Climbing Seattle Center
06:43PM 45.2894 -122.0606 121° Southeast 412 474 27,500 1,920 Climbing Seattle Center
06:44PM 45.2300 -121.8750 114° Southeast 450 518 29,400 1,680 Climbing Seattle Center
06:45PM 45.1842 -121.7000 110° East 472 543 31,000 1,680 Climbing Seattle Center
06:46PM 45.1381 -121.5211 110° East 483 556 32,900 1,620 Climbing Seattle Center
06:47PM 45.0908 -121.3406 110° East 490 564 34,400 1,500 Climbing Seattle Center
06:48PM 45.0431 -121.1575 110° East 496 571 36,000 1,440 Climbing Seattle Center
06:49PM 44.9933 -120.9744 111° Southeast 500 575 37,400 1,380 Climbing Seattle Center
06:50PM 44.9436 -120.7939 111° Southeast 497 572 38,900 780 Climbing Seattle Center
06:51PM 44.8886 -120.6150 113° Southeast 499 574 39,000  Climbing Seattle Center
06:52PM 44.8331 -120.4328 113° Southeast 507 583 39,000  Level Seattle Center
06:53PM 44.7797 -120.2525 113° Southeast 507 583 39,000  Level Seattle Center
06:54PM 44.7244 -120.0739 113° Southeast 507 583 39,000  Level Seattle Center
06:55PM 44.6692 -119.8953 113° Southeast 508 585 39,000  Level Seattle Center
06:56PM 44.6019 -119.6781 113° Southeast 511 588 39,000  Level Seattle Center
06:57PM 44.5469 -119.4975 113° Southeast 508 585 39,000  Level Seattle Center
06:58PM 44.4897 -119.3172 114° Southeast 508 585 39,000  Level Seattle Center
06:59PM 44.4328 -119.1361 114° Southeast 511 588 39,000  Level Seattle Center
07:00PM 44.3756 -118.9575 114° Southeast 506 582 39,000  Level Seattle Center
07:01PM 44.3181 -118.7789 114° Southeast 508 585 39,000  Level Seattle Center
07:02PM 44.2586 -118.5997 115° Southeast 509 586 39,000  Level Seattle Center
07:03PM 44.2017 -118.4211 114° Southeast 508 585 39,000  Level Seattle Center
07:04PM 44.1425 -118.2422 115° Southeast 509 586 39,000  Level Seattle Center
07:05PM 44.0797 -118.0561 115° Southeast 509 586 39,000  Level Seattle Center
07:06PM 44.0114 -117.8550 115° Southeast 511 588 39,000  Level Salt Lake Center
07:07PM 43.9553 -117.6861 115° Southeast 505 581 39,000  Level Salt Lake Center
07:08PM 43.8939 -117.5214 117° Southeast 504 580 39,000  Level Salt Lake Center
07:09PM 43.8219 -117.3275 117° Southeast 506 582 39,000  Level Salt Lake Center
07:10PM 43.7600 -117.1617 117° Southeast 508 585 39,000  Level Salt Lake Center
07:11PM 43.6881 -116.9700 117° Southeast 506 582 39,000  Level Salt Lake Center
07:12PM 43.6267 -116.8064 117° Southeast 504 580 39,000  Level Salt Lake Center
07:13PM 43.5656 -116.6433 117° Southeast 503 579 39,000  Level Salt Lake Center
07:14PM 43.4925 -116.4550 118° Southeast 501 577 39,000  Level Salt Lake Center
07:15PM 43.4306 -116.2942 118° Southeast 496 571 39,000  Level Salt Lake Center
07:16PM 43.3686 -116.1328 118° Southeast 499 574 39,000  Level Salt Lake Center
07:17PM 43.2958 -115.9456 118° Southeast 500 575 39,000  Level Salt Lake Center
07:18PM 43.2331 -115.7864 118° Southeast 497 572 39,000  Level Salt Lake Center
07:19PM 43.1603 -115.6019 118° Southeast 492 566 39,000  Level Salt Lake Center
07:20PM 43.0978 -115.4450 119° Southeast 492 566 39,000  Level Salt Lake Center
07:21PM 43.0353 -115.2867 118° Southeast 493 567 39,000  Level Salt Lake Center
07:22PM 42.9619 -115.1028 119° Southeast 495 570 39,000  Level Salt Lake Center
07:23PM 42.8981 -114.9467 119° Southeast 492 566 39,000  Level Salt Lake Center
07:24PM 42.8344 -114.7889 119° Southeast 495 570 39,000  Level Salt Lake Center
07:25PM 42.7592 -114.6058 119° Southeast 497 572 39,000  Level Salt Lake Center
07:26PM 42.6886 -114.4339 119° Southeast 497 572 39,000  Level Salt Lake Center
07:28PM 42.6214 -114.2706 119° Southeast 497 572 39,000 -300 Level Salt Lake Center
07:29PM 42.5553 -114.1086 119° Southeast 493 567 38,400 -1,320 Descending Salt Lake Center
07:30PM 42.4892 -113.9511 120° Southeast 481 554 36,400 -2,280 Descending Salt Lake Center
07:31PM 42.4219 -113.7936 120° Southeast 484 557 33,800 -2,460 Descending Salt Lake Center
07:32PM 42.3569 -113.6411 120° Southeast 471 542 31,400 -2,340 Descending Salt Lake Center
07:33PM 42.2944 -113.4958 120° Southeast 453 521 29,100 -1,200 Descending Salt Lake Center
07:34PM 42.2131 -113.3753 132° Southeast 435 501 29,000 -240 Descending Salt Lake Center
07:35PM 42.1261 -113.2597 135° Southeast 440 506 28,700 -1,620 Descending Salt Lake Center
07:36PM 42.0406 -113.1461 135° Southeast 433 498 25,800 -2,820 Descending Salt Lake Center
07:37PM 41.9414 -113.0175 136° Southeast 416 479 23,000 -2,580 Descending Salt Lake Center
07:38PM 41.8611 -112.9133 136° Southeast 404 465 20,600 -1,920 Descending Salt Lake Center
07:39PM 41.7850 -112.8158 136° Southeast 382 440 19,100 -1,560 Descending Salt Lake Center
07:40PM 41.7131 -112.7228 136° Southeast 364 419 17,500 -1,080 Descending Salt Lake Center
07:41PM 41.6381 -112.6289 137° Southeast 369 425 17,000 -300 Descending Salt Lake Center
07:42PM 41.5642 -112.5311 135° Southeast 372 428 17,000 -240 Level Salt Lake Center
07:43PM 41.4861 -112.4458 141° Southeast 363 418 16,600 -540 Descending Salt Lake Center
07:44PM 41.3944 -112.3811 152° Southeast 373 429 16,000 -300 Descending Salt Lake Center
07:45PM 41.3050 -112.3172 152° Southeast 367 422 16,000  Level Salt Lake Center
07:46PM 41.1972 -112.2389 151° Southeast 362 417 16,000 -480 Level Salt Lake Center
07:47PM 41.1108 -112.1714 150° Southeast 357 411 15,000 -1,740 Descending Salt Lake Center
07:48PM 41.0086 -112.1319 164° South 358 412 12,500 -1,680 Descending Salt Lake Center
07:49PM 40.9308 -112.1153 171° South 337 388 11,800 -780 Descending Salt Lake Center
07:50PM 40.8439 -112.1025 174° South 317 365 11,000 -600 Descending Salt Lake Center
07:51PM 40.7697 -112.0931 174° South 268 308 10,700 -540 Descending Salt Lake Center
07:52PM 40.7008 -112.0856 175° South 250 288 10,000 -720 Descending Salt Lake Center
07:53PM 40.6603 -112.0489 146° Southeast 191 220 9,300 -1,380 Descending Salt Lake Center
07:54PM 40.6644 -111.9886 85° East 172 198 7,200 -1,860 Descending Salt Lake Center
07:55PM 40.7114 -111.9875 North 141 162 5,500 -1,200 Descending Salt Lake Center
07:56PM 40.7483 -111.9917 355° North 134 154 4,800 -720 Descending Salt Lake Center
07:57PM 40.7853 -111.9961 355° North 134 154 4,100 -720 Descending Salt Lake Center
07:59PM 40.7884 -111.9778 123° Southeast  Level Estimated